createdAt,value
2022-10-11T00:00:37.401Z,59.25
2022-10-11T00:03:39.700Z,59.40
2022-10-11T00:06:43.852Z,59.28
2022-10-11T00:09:46.378Z,59.12
2022-10-11T00:12:48.654Z,58.95
2022-10-11T00:15:51.489Z,59.25
2022-10-11T00:18:53.897Z,58.89
2022-10-11T00:21:56.201Z,59.32
2022-10-11T00:24:59.316Z,59.37
2022-10-11T00:28:01.667Z,59.24
2022-10-11T00:31:11.324Z,59.52
2022-10-11T00:34:15.690Z,59.40
2022-10-11T00:37:18.794Z,59.28
2022-10-11T00:40:21.241Z,60.44
2022-10-11T00:43:26.108Z,60.31
2022-10-11T00:46:30.666Z,60.25
2022-10-11T00:49:32.842Z,60.48
2022-10-11T00:52:38.525Z,60.29
2022-10-11T00:55:53.486Z,60.21
2022-10-11T00:58:56.474Z,59.76
2022-10-11T01:01:58.923Z,60.75
2022-10-11T01:05:27.558Z,60.36
2022-10-11T01:08:24.005Z,60.23
2022-10-11T01:11:27.597Z,60.28
2022-10-11T01:14:41.898Z,60.74
2022-10-11T01:18:16.118Z,60.98
2022-10-11T01:21:31.123Z,61.04
2022-10-11T01:24:36.506Z,60.71
2022-10-11T01:27:48.506Z,61.02
2022-10-11T01:30:51.513Z,60.65
2022-10-11T01:34:06.369Z,61.04
2022-10-11T01:37:17.807Z,60.82
2022-10-11T01:40:42.654Z,61.11
2022-10-11T01:43:45.918Z,61.23
2022-10-11T01:46:48.192Z,60.76
2022-10-11T01:49:58.543Z,60.52
2022-10-11T01:53:16.223Z,61.04
2022-10-11T01:56:37.099Z,61.75
2022-10-11T01:59:51.620Z,61.33
2022-10-11T02:03:06.480Z,60.46
2022-10-11T02:06:50.241Z,61.25
2022-10-11T02:10:00.481Z,61.29
2022-10-11T02:13:13.684Z,61.09
2022-10-11T02:16:19.897Z,61.68
2022-10-11T02:19:26.646Z,61.45
2022-10-11T02:22:33.155Z,61.58
2022-10-11T02:25:36.485Z,61.38
2022-10-11T02:28:40.113Z,61.18
2022-10-11T02:31:43.436Z,61.78
2022-10-11T02:34:53.560Z,61.60
2022-10-11T02:38:03.824Z,61.92
2022-10-11T02:41:12.094Z,61.87
2022-10-11T02:44:19.062Z,61.79
2022-10-11T02:47:21.345Z,61.43
2022-10-11T02:50:23.846Z,60.76
2022-10-11T02:53:27.080Z,60.92
2022-10-11T02:56:29.399Z,61.13
2022-10-11T02:59:31.633Z,61.34
2022-10-11T03:02:34.150Z,60.84
2022-10-11T03:05:40.762Z,60.64
2022-10-11T03:08:43.073Z,61.50
2022-10-11T03:11:45.338Z,61.12
2022-10-11T03:14:47.631Z,61.74
2022-10-11T03:17:49.955Z,61.96
2022-10-11T03:20:52.224Z,61.20
2022-10-11T03:23:54.508Z,61.00
2022-10-11T03:26:56.810Z,60.71
2022-10-11T03:29:59.301Z,61.56
2022-10-11T03:33:01.549Z,60.94
2022-10-11T03:36:04.319Z,61.77
2022-10-11T03:39:07.069Z,61.16
2022-10-11T03:42:09.327Z,60.49
2022-10-11T03:45:11.698Z,60.36
2022-10-11T03:48:13.981Z,61.29
2022-10-11T03:51:16.338Z,60.47
2022-10-11T03:54:18.576Z,60.92
2022-10-11T03:57:20.901Z,60.82
2022-10-11T04:00:23.331Z,59.93
2022-10-11T04:03:25.755Z,59.93
2022-10-11T04:06:28.026Z,60.45
2022-10-11T04:09:30.390Z,59.92
2022-10-11T04:12:33.078Z,60.49
2022-10-11T04:15:36.863Z,60.98
2022-10-11T04:18:39.186Z,60.10
2022-10-11T04:21:41.552Z,61.63
2022-10-11T04:24:43.862Z,59.86
2022-10-11T04:27:46.154Z,59.42
2022-10-11T04:30:48.437Z,59.44
2022-10-11T04:33:50.851Z,59.29
2022-10-11T04:36:53.240Z,59.27
2022-10-11T04:39:55.967Z,59.85
2022-10-11T04:42:58.750Z,60.70
2022-10-11T04:46:01.049Z,60.09
2022-10-11T04:49:03.607Z,59.38
2022-10-11T04:52:05.913Z,59.63
2022-10-11T04:55:08.629Z,59.37
2022-10-11T04:58:10.949Z,59.74
2022-10-11T05:01:13.208Z,59.53
2022-10-11T05:04:15.551Z,59.93
2022-10-11T05:07:17.817Z,59.18
2022-10-11T05:10:20.087Z,59.13
2022-10-11T05:13:22.584Z,59.35
2022-10-11T05:16:25.187Z,59.12
2022-10-11T05:19:27.523Z,60.04
2022-10-11T05:22:29.765Z,59.99
2022-10-11T05:25:31.996Z,60.28
2022-10-11T05:28:34.409Z,60.07
2022-10-11T05:31:36.742Z,59.96
2022-10-11T05:34:38.999Z,60.58
2022-10-11T05:37:41.388Z,59.72
2022-10-11T05:40:43.707Z,60.46
2022-10-11T05:43:46.089Z,60.56
2022-10-11T05:46:48.482Z,59.91
2022-10-11T05:49:50.774Z,60.23
2022-10-11T05:52:53.012Z,58.76
2022-10-11T05:55:55.473Z,58.56
2022-10-11T05:59:02.156Z,58.81
2022-10-11T06:02:04.774Z,58.50
2022-10-11T06:05:07.296Z,58.52
2022-10-11T06:08:11.219Z,58.93
2022-10-11T06:11:16.084Z,59.31
2022-10-11T06:14:18.544Z,58.43
2022-10-11T06:17:20.849Z,58.72
2022-10-11T06:20:23.085Z,57.76
2022-10-11T06:23:26.007Z,57.78
2022-10-11T06:26:29.507Z,57.54
2022-10-11T06:29:31.731Z,57.25
2022-10-11T06:32:34.036Z,57.53
2022-10-11T06:35:36.329Z,57.58
2022-10-11T06:38:43.800Z,57.56
2022-10-11T06:41:47.237Z,57.67
2022-10-11T06:44:49.511Z,56.96
2022-10-11T06:47:51.877Z,56.04
2022-10-11T06:50:59.934Z,55.90
2022-10-11T06:54:02.983Z,55.30
2022-10-11T06:57:05.342Z,55.16
2022-10-11T07:00:12.452Z,56.16
2022-10-11T07:03:15.089Z,52.43
2022-10-11T07:06:24.947Z,53.36
2022-10-11T07:09:27.218Z,53.12
2022-10-11T07:12:29.509Z,54.24
2022-10-11T07:15:31.768Z,53.72
2022-10-11T07:18:34.436Z,51.64
2022-10-11T07:21:36.746Z,51.38
2022-10-11T07:24:38.969Z,50.02
2022-10-11T07:27:41.213Z,48.83
2022-10-11T07:30:44.163Z,48.25
2022-10-11T07:33:46.684Z,48.43
2022-10-11T07:36:49.136Z,48.53
2022-10-11T07:39:51.385Z,48.96
2022-10-11T07:42:53.865Z,48.19
2022-10-11T07:45:57.166Z,47.18
2022-10-11T07:48:59.586Z,46.53
2022-10-11T07:52:01.830Z,46.42
2022-10-11T07:55:04.577Z,46.42
2022-10-11T07:58:11.584Z,47.66
2022-10-11T08:01:14.724Z,47.88
2022-10-11T08:04:17.113Z,48.43
2022-10-11T08:07:21.576Z,47.74
2022-10-11T08:10:26.315Z,48.03
2022-10-11T08:13:29.915Z,47.98
2022-10-11T08:16:32.208Z,48.75
2022-10-11T08:19:34.743Z,49.10
2022-10-11T08:22:37.050Z,48.04
2022-10-11T08:25:41.001Z,48.05
2022-10-11T08:28:43.412Z,47.09
2022-10-11T08:31:45.766Z,48.06
2022-10-11T08:34:48.053Z,49.08
2022-10-11T08:37:50.351Z,46.97
2022-10-11T08:40:55.369Z,47.09
2022-10-11T08:44:24.605Z,47.38
2022-10-11T08:47:35.750Z,47.30
2022-10-11T08:50:38.574Z,46.01
2022-10-11T08:53:54.107Z,45.92
2022-10-11T08:56:56.466Z,46.85
2022-10-11T09:00:01.260Z,46.59
2022-10-11T09:03:26.870Z,46.90
2022-10-11T09:06:32.111Z,49.21
2022-10-11T09:10:02.265Z,47.91
2022-10-11T09:13:13.615Z,46.77
2022-10-11T09:16:37.088Z,46.51
2022-10-11T09:20:17.768Z,47.12
2022-10-11T09:23:43.174Z,46.28
2022-10-11T09:26:59.574Z,44.91
2022-10-11T09:30:15.879Z,45.78
2022-10-11T09:33:29.310Z,45.71
2022-10-11T09:36:39.099Z,44.52
2022-10-11T09:39:53.667Z,45.27
2022-10-11T09:42:55.986Z,45.19
2022-10-11T09:45:58.356Z,44.69
2022-10-11T09:49:04.303Z,43.93
2022-10-11T09:52:14.490Z,42.61
2022-10-11T09:55:37.362Z,43.25
2022-10-11T09:58:40.405Z,43.50
2022-10-11T10:01:42.774Z,41.96
2022-10-11T10:04:53.856Z,42.50
2022-10-11T10:08:11.307Z,42.64
2022-10-11T10:11:14.450Z,42.50
2022-10-11T10:14:23.034Z,41.00
2022-10-11T10:17:25.372Z,41.78
2022-10-11T10:20:32.348Z,41.57
2022-10-11T10:23:36.441Z,41.15
2022-10-11T10:26:40.010Z,40.15
2022-10-11T10:29:43.275Z,41.31
2022-10-11T10:32:56.244Z,41.80
2022-10-11T10:36:04.101Z,40.49
2022-10-11T10:39:27.277Z,41.05
2022-10-11T10:42:29.702Z,41.17
2022-10-11T10:45:44.531Z,41.03
2022-10-11T10:49:28.291Z,39.89
2022-10-11T10:52:24.066Z,40.51
2022-10-11T10:55:45.333Z,40.35
2022-10-11T10:59:20.425Z,40.10
2022-10-11T11:02:51.921Z,41.37
2022-10-11T11:06:03.720Z,41.91
2022-10-11T11:09:18.690Z,42.10
2022-10-11T11:12:39.204Z,43.93
2022-10-11T11:15:52.033Z,43.82
2022-10-11T11:19:14.996Z,44.22
2022-10-11T11:22:40.029Z,44.16
2022-10-11T11:26:01.648Z,44.13
2022-10-11T11:29:07.345Z,44.47
2022-10-11T11:32:48.644Z,44.07
2022-10-11T11:35:53.952Z,43.92
2022-10-11T11:38:59.415Z,42.59
2022-10-11T11:42:07.945Z,43.29
2022-10-11T11:45:19.039Z,44.12
2022-10-11T11:48:24.901Z,43.59
2022-10-11T11:51:34.165Z,44.22
2022-10-11T11:54:50.653Z,44.71
2022-10-11T11:58:11.285Z,42.85
2022-10-11T12:01:37.952Z,43.08
2022-10-11T12:04:42.693Z,42.74
2022-10-11T12:07:54.402Z,43.31
2022-10-11T12:11:00.933Z,44.55
2022-10-11T12:14:34.589Z,42.16
2022-10-11T12:17:58.066Z,43.97
2022-10-11T12:21:07.484Z,44.03
2022-10-11T12:24:12.957Z,43.33
2022-10-11T12:27:53.049Z,43.20
2022-10-11T12:31:05.271Z,42.60
2022-10-11T12:34:16.562Z,42.83
2022-10-11T12:37:19.330Z,42.33
2022-10-11T12:40:37.538Z,42.81
2022-10-11T12:43:48.982Z,42.31
2022-10-11T12:46:51.539Z,42.27
2022-10-11T12:50:04.326Z,43.75
2022-10-11T12:53:30.123Z,42.43
2022-10-11T12:56:47.436Z,42.40
2022-10-11T12:59:49.942Z,43.38
2022-10-11T13:02:52.492Z,43.97
2022-10-11T13:06:01.465Z,43.30
2022-10-11T13:09:25.150Z,43.41
2022-10-11T13:12:31.310Z,43.97
2022-10-11T13:15:34.654Z,43.94
2022-10-11T13:18:48.514Z,43.77
2022-10-11T13:21:54.955Z,43.10
2022-10-11T13:24:58.011Z,43.69
2022-10-11T13:28:00.392Z,42.85
2022-10-11T13:31:03.831Z,44.32
2022-10-11T13:34:06.506Z,43.40
2022-10-11T13:37:18.732Z,44.21
2022-10-11T13:40:21.973Z,44.89
2022-10-11T13:43:26.387Z,43.87
2022-10-11T13:46:30.494Z,44.74
2022-10-11T13:54:45.287Z,45.37
2022-10-11T14:07:42.851Z,48.71
2022-10-11T14:11:18.039Z,49.46
2022-10-11T14:14:35.773Z,49.93
2022-10-11T14:17:44.620Z,50.26
2022-10-11T14:20:46.993Z,50.52
2022-10-11T14:24:01.775Z,51.44
2022-10-11T14:27:05.499Z,50.58
2022-10-11T14:30:27.248Z,51.43
2022-10-11T14:33:30.010Z,52.04
2022-10-11T14:36:32.288Z,50.73
2022-10-11T14:39:34.629Z,51.85
2022-10-11T14:42:36.926Z,52.47
2022-10-11T14:45:39.330Z,51.89
2022-10-11T14:48:55.063Z,50.00
2022-10-11T14:51:59.246Z,51.15
2022-10-11T14:55:01.951Z,51.29
2022-10-11T14:58:05.474Z,50.17
2022-10-11T15:01:12.363Z,52.04
2022-10-11T15:04:14.665Z,50.47
2022-10-11T15:07:17.001Z,50.55
2022-10-11T15:10:30.447Z,51.45
2022-10-11T15:13:32.754Z,51.41
2022-10-11T15:16:35.634Z,50.93
2022-10-11T15:19:37.970Z,51.83
2022-10-11T15:22:40.261Z,53.01
2022-10-11T15:25:42.931Z,52.45
2022-10-11T15:28:45.769Z,53.02
2022-10-11T15:31:49.374Z,53.90
2022-10-11T15:34:51.670Z,53.73
2022-10-11T15:37:56.669Z,54.07
2022-10-11T15:40:59.758Z,53.03
2022-10-11T15:44:02.061Z,53.75
2022-10-11T15:47:04.522Z,54.27
2022-10-11T15:50:33.801Z,54.94
2022-10-11T15:53:36.261Z,55.53
2022-10-11T15:56:38.593Z,56.13
2022-10-11T15:59:40.854Z,55.62
2022-10-11T16:02:43.124Z,56.07
2022-10-11T16:05:45.476Z,56.43
2022-10-11T16:08:48.081Z,55.78
2022-10-11T16:11:50.380Z,55.89
2022-10-11T16:14:52.784Z,56.62
2022-10-11T16:17:55.099Z,56.86
2022-10-11T16:20:57.365Z,56.83
2022-10-11T16:23:59.651Z,57.16
2022-10-11T16:27:01.915Z,57.84
2022-10-11T16:30:05.024Z,57.47
2022-10-11T16:33:07.315Z,57.72
2022-10-11T16:36:28.152Z,58.20
2022-10-11T16:39:30.460Z,58.39
2022-10-11T16:42:33.082Z,58.56
2022-10-11T16:45:36.013Z,59.38
2022-10-11T16:48:38.393Z,59.31
2022-10-11T16:51:40.885Z,59.61
2022-10-11T16:54:45.036Z,60.04
2022-10-11T16:57:47.581Z,59.78
2022-10-11T17:00:50.743Z,60.72
2022-10-11T17:03:53.271Z,60.75
2022-10-11T17:06:56.502Z,60.04
2022-10-11T17:10:00.991Z,60.59
2022-10-11T17:13:03.203Z,61.15
2022-10-11T17:16:06.287Z,60.64
2022-10-11T17:19:14.135Z,61.73
2022-10-11T17:22:19.347Z,61.71
2022-10-11T17:25:21.702Z,61.47
2022-10-11T17:28:24.225Z,61.70
2022-10-11T17:31:28.030Z,61.80
2022-10-11T17:34:30.837Z,61.84
2022-10-11T17:37:34.549Z,62.00
2022-10-11T17:40:36.888Z,62.32
2022-10-11T17:43:41.954Z,61.93
2022-10-11T17:46:44.430Z,61.93
2022-10-11T17:49:46.912Z,60.85
2022-10-11T17:52:49.439Z,61.04
2022-10-11T17:55:53.429Z,60.94
2022-10-11T17:58:56.920Z,60.55
2022-10-11T18:01:59.249Z,61.45
2022-10-11T18:05:01.581Z,61.37
2022-10-11T18:08:03.877Z,61.07
2022-10-11T18:11:10.681Z,61.38
2022-10-11T18:14:14.804Z,62.03
2022-10-11T18:17:17.745Z,62.07
2022-10-11T18:20:20.338Z,62.47
2022-10-11T18:23:22.759Z,62.07
2022-10-11T18:26:30.154Z,62.31
2022-10-11T18:29:32.848Z,61.99
2022-10-11T18:32:35.274Z,63.11
2022-10-11T18:35:38.154Z,61.94
2022-10-11T18:38:46.270Z,62.27
2022-10-11T18:41:49.032Z,62.73
2022-10-11T18:44:51.322Z,62.40
2022-10-11T18:47:53.652Z,62.65
2022-10-11T18:51:07.295Z,63.18
2022-10-11T18:54:12.956Z,63.39
2022-10-11T18:57:17.705Z,63.91
2022-10-11T19:00:39.748Z,63.37
2022-10-11T19:03:43.525Z,64.20
2022-10-11T19:06:50.801Z,64.39
2022-10-11T19:09:52.996Z,63.69
2022-10-11T19:12:55.281Z,63.95
2022-10-11T19:16:04.139Z,64.54
2022-10-11T19:19:07.469Z,64.40
2022-10-11T19:22:09.790Z,64.70
2022-10-11T19:25:12.157Z,64.63
2022-10-11T19:28:15.823Z,65.00
2022-10-11T19:31:18.195Z,65.73
2022-10-11T19:34:21.570Z,65.50
2022-10-11T19:37:23.982Z,65.39
2022-10-11T19:40:29.147Z,65.86
2022-10-11T19:43:33.975Z,65.42
2022-10-11T19:46:52.926Z,65.96
2022-10-11T19:49:55.584Z,65.92
2022-10-11T19:52:57.900Z,66.14
2022-10-11T19:56:02.385Z,66.20
2022-10-11T19:59:06.516Z,65.57
2022-10-11T20:02:10.609Z,66.13
2022-10-11T20:05:13.894Z,66.08
2022-10-11T20:08:16.285Z,66.40
2022-10-11T20:11:19.992Z,66.71
2022-10-11T20:14:22.523Z,66.14
2022-10-11T20:17:44.897Z,66.77
2022-10-11T20:20:55.027Z,66.42
2022-10-11T20:24:02.679Z,65.89
2022-10-11T20:27:05.695Z,66.38
2022-10-11T20:30:08.551Z,66.17
2022-10-11T20:33:10.814Z,66.07
2022-10-11T20:36:19.392Z,65.68
2022-10-11T20:39:22.049Z,65.65
2022-10-11T20:42:28.952Z,65.58
2022-10-11T20:45:32.129Z,64.77
2022-10-11T20:48:35.729Z,65.04
2022-10-11T20:51:39.414Z,65.10
2022-10-11T20:54:41.777Z,65.23
2022-10-11T20:57:44.101Z,64.94
2022-10-11T21:00:46.841Z,64.48
2022-10-11T21:03:49.230Z,64.74
2022-10-11T21:06:51.479Z,64.06
2022-10-11T21:09:53.852Z,64.36
2022-10-11T21:12:56.224Z,64.35
2022-10-11T21:16:11.278Z,64.50
2022-10-11T21:19:15.340Z,64.51
2022-10-11T21:22:17.605Z,64.73
2022-10-11T21:25:20.039Z,64.96
2022-10-11T21:28:22.438Z,65.08
2022-10-11T21:31:26.627Z,65.31
2022-10-11T21:34:31.937Z,65.44
2022-10-11T21:37:34.382Z,65.05
2022-10-11T21:40:40.606Z,65.67
2022-10-11T21:43:43.212Z,65.75
2022-10-11T21:47:06.044Z,65.75
2022-10-11T21:50:08.950Z,65.95
2022-10-11T21:53:11.388Z,66.07
2022-10-11T21:56:14.044Z,66.01
2022-10-11T21:59:16.326Z,66.35
2022-10-11T22:02:18.631Z,66.71
2022-10-11T22:05:21.010Z,66.68
2022-10-11T22:08:23.452Z,66.71
2022-10-11T22:11:25.718Z,66.94
2022-10-11T22:14:28.950Z,67.00
2022-10-11T22:17:31.189Z,66.90
2022-10-11T22:20:33.648Z,66.94
2022-10-11T22:23:36.310Z,67.67
2022-10-11T22:26:38.834Z,67.24
2022-10-11T22:29:41.307Z,67.01
2022-10-11T22:32:43.611Z,67.35
2022-10-11T22:35:45.846Z,67.49
2022-10-11T22:38:48.150Z,67.04
2022-10-11T22:41:50.512Z,67.67
2022-10-11T22:44:53.327Z,67.10
2022-10-11T22:47:55.581Z,67.46
2022-10-11T22:50:57.990Z,67.37
2022-10-11T22:54:00.321Z,67.58
2022-10-11T22:57:02.717Z,67.92
2022-10-11T23:00:05.819Z,68.02
2022-10-11T23:03:08.199Z,68.39
2022-10-11T23:06:10.540Z,68.47
2022-10-11T23:09:12.989Z,68.16
2022-10-11T23:12:15.598Z,68.28
2022-10-11T23:15:17.935Z,68.48
2022-10-11T23:18:20.352Z,68.58
2022-10-11T23:21:22.621Z,68.42
2022-10-11T23:24:25.078Z,68.88
2022-10-11T23:27:29.374Z,69.07
2022-10-11T23:30:31.801Z,69.39
2022-10-11T23:33:34.280Z,69.07
2022-10-11T23:36:36.561Z,69.08
2022-10-11T23:39:38.870Z,69.05
2022-10-11T23:42:41.127Z,69.14
2022-10-11T23:45:44.361Z,69.48
2022-10-11T23:48:46.693Z,69.46
2022-10-11T23:51:48.916Z,69.19
2022-10-11T23:54:51.286Z,69.46
2022-10-11T23:57:53.615Z,69.02
